Time;durP1;ratioP1;P1;durP2;ratioP2;P2;SDS_P1;SDS_P2;PMS_P1;PMS_P2;Temp;Humidity;BMP_temperature;BMP_pressure;BME280_temperature;BME280_humidity;BME280_pressure;Samples;Min_cycle;Max_cycle;Signal;HPM_P1;HPM_P2
2021/09/01 00:01:42;;;;;;;19.20;8.20;;;;;;;13.93;100.00;101301.28;4995583;28;20439;-69
2021/09/01 00:04:09;;;;;;;14.35;6.93;;;;;;;13.92;100.00;101283.47;4995665;28;20043;-69
2021/09/01 00:06:36;;;;;;;15.05;6.80;;;;;;;13.95;100.00;101299.38;4995486;28;20050;-69
2021/09/01 00:09:03;;;;;;;13.45;7.03;;;;;;;13.91;100.00;101288.91;4995544;28;20042;-69
2021/09/01 00:11:30;;;;;;;19.25;7.30;;;;;;;13.97;100.00;101307.34;4995605;28;20065;-70
2021/09/01 00:13:57;;;;;;;19.02;7.13;;;;;;;14.04;100.00;101302.47;4998570;28;20039;-69
2021/09/01 00:16:27;;;;;;;18.92;7.47;;;;;;;14.00;100.00;101291.06;4998217;28;20046;-68
2021/09/01 00:19:05;;;;;;;16.05;8.23;;;;;;;14.06;100.00;101292.53;4997284;28;20089;-69
2021/09/01 00:21:33;;;;;;;15.80;6.55;;;;;;;14.03;100.00;101295.38;4999551;28;20050;-68
2021/09/01 00:24:00;;;;;;;18.50;6.97;;;;;;;14.08;100.00;101293.31;5015473;28;20312;-69
2021/09/01 00:26:27;;;;;;;17.88;6.80;;;;;;;14.03;100.00;101290.88;5015242;28;20049;-70
2021/09/01 00:28:55;;;;;;;17.13;7.57;;;;;;;13.99;100.00;101290.19;5013892;28;20056;-69
2021/09/01 00:31:23;;;;;;;14.10;6.28;;;;;;;14.03;100.00;101287.31;5015152;28;20046;-69
2021/09/01 00:33:50;;;;;;;17.05;6.97;;;;;;;13.96;100.00;101285.00;5014930;28;20342;-68
2021/09/01 00:36:18;;;;;;;17.45;7.95;;;;;;;14.01;100.00;101282.06;5013968;28;20038;-69
2021/09/01 00:38:47;;;;;;;23.58;7.85;;;;;;;14.04;100.00;101279.19;5015088;28;20378;-69
2021/09/01 00:41:17;;;;;;;18.90;7.63;;;;;;;14.07;100.00;101280.84;5014977;28;20072;-69
2021/09/01 00:43:49;;;;;;;19.02;8.18;;;;;;;14.04;100.00;101284.56;5014870;28;20049;-68
2021/09/01 00:46:19;;;;;;;15.40;8.23;;;;;;;14.06;100.00;101273.75;5015504;28;20508;-68
2021/09/01 00:48:46;;;;;;;19.42;8.40;;;;;;;14.02;100.00;101283.78;5017541;28;20052;-69
2021/09/01 00:51:16;;;;;;;16.42;7.97;;;;;;;14.12;100.00;101289.50;5018566;28;20042;-68
2021/09/01 00:53:46;;;;;;;18.00;7.78;;;;;;;14.11;100.00;101279.72;5018387;28;20050;-69
2021/09/01 00:56:20;;;;;;;;;;;;;;;14.04;100.00;101284.56;5018849;28;20041;-69
2021/09/01 00:58:47;;;;;;;24.17;9.18;;;;;;;14.05;100.00;101288.13;5018320;28;19968;-69
2021/09/01 01:01:16;;;;;;;18.10;8.48;;;;;;;14.15;100.00;101289.31;5017174;28;20057;-68
2021/09/01 01:03:52;;;;;;;17.77;8.13;;;;;;;14.15;100.00;101292.00;5017098;28;20042;-68
2021/09/01 01:06:24;;;;;;;23.85;7.47;;;;;;;14.13;100.00;101302.81;5018347;28;20050;-69
2021/09/01 01:08:52;;;;;;;19.63;8.07;;;;;;;14.21;100.00;101304.19;5018285;28;20053;-69
2021/09/01 01:11:19;;;;;;;18.50;8.00;;;;;;;14.18;100.00;101299.00;5018168;28;20057;-68
2021/09/01 01:13:47;;;;;;;24.35;8.27;;;;;;;14.14;100.00;101301.00;5018034;28;20476;-69
2021/09/01 01:16:18;;;;;;;16.35;7.97;;;;;;;14.10;100.00;101303.00;5017108;28;20053;-69
2021/09/01 01:18:47;;;;;;;16.25;8.30;;;;;;;14.08;100.00;101306.72;5016918;28;20050;-69
2021/09/01 01:21:21;;;;;;;20.88;8.02;;;;;;;14.03;100.00;101296.25;5018034;28;20045;-69
2021/09/01 01:23:51;;;;;;;17.33;8.10;;;;;;;14.11;100.00;101303.88;5017802;28;20042;-69
2021/09/01 01:26:18;;;;;;;23.17;7.68;;;;;;;14.15;100.00;101300.03;5016941;28;20053;-69
2021/09/01 01:28:56;;;;;;;20.65;8.90;;;;;;;14.19;100.00;101306.09;5016675;28;20431;-69
2021/09/01 01:31:23;;;;;;;19.15;7.53;;;;;;;14.11;100.00;101293.16;5017851;28;20514;-69
2021/09/01 01:33:50;;;;;;;14.60;7.88;;;;;;;14.11;100.00;101296.69;5017677;28;20049;-69
2021/09/01 01:36:18;;;;;;;20.83;8.35;;;;;;;14.08;100.00;101287.94;5017839;28;20069;-69
2021/09/01 01:38:45;;;;;;;22.88;8.63;;;;;;;14.08;100.00;101296.00;5017578;28;20503;-69
2021/09/01 01:41:12;;;;;;;15.68;8.52;;;;;;;14.08;100.00;101299.56;5017675;28;20048;-68
2021/09/01 01:43:38;;;;;;;17.95;9.40;;;;;;;14.12;100.00;101306.47;5017467;28;20057;-69
2021/09/01 01:46:06;;;;;;;20.02;8.70;;;;;;;14.12;100.00;101300.25;5017469;28;20061;-68
2021/09/01 01:48:34;;;;;;;18.85;7.80;;;;;;;14.04;100.00;101291.75;5016289;28;20100;-69
2021/09/01 01:51:02;;;;;;;17.45;8.23;;;;;;;14.07;100.00;101302.31;5016401;28;20058;-69
2021/09/01 01:53:29;;;;;;;17.77;7.30;;;;;;;14.11;100.00;101309.25;5017186;28;20049;-68
2021/09/01 01:55:56;;;;;;;17.33;7.30;;;;;;;14.11;100.00;101301.19;5017389;28;20065;-70
2021/09/01 01:58:23;;;;;;;18.80;8.00;;;;;;;14.08;100.00;101309.41;5017222;28;20120;-69
2021/09/01 02:00:50;;;;;;;24.38;8.70;;;;;;;14.07;100.00;101310.38;5017281;28;20061;-69
2021/09/01 02:03:18;;;;;;;17.13;7.40;;;;;;;14.04;100.00;101308.72;5032533;28;20041;-69
2021/09/01 02:05:45;;;;;;;19.30;7.15;;;;;;;14.10;100.00;101315.56;5016066;28;20423;-69
2021/09/01 02:08:12;;;;;;;19.33;7.65;;;;;;;14.13;100.00;101318.06;5016139;28;20109;-69
2021/09/01 02:10:39;;;;;;;14.23;7.43;;;;;;;14.11;100.00;101318.16;5017130;28;20045;-69
2021/09/01 02:13:06;;;;;;;13.32;7.65;;;;;;;14.11;100.00;101317.31;5016078;28;20046;-69
2021/09/01 02:15:33;;;;;;;11.82;7.30;;;;;;;14.10;100.00;101312.88;5015992;28;20120;-70
2021/09/01 02:18:00;;;;;;;16.75;7.32;;;;;;;14.10;100.00;101313.75;5016801;28;20066;-69
2021/09/01 02:20:28;;;;;;;16.00;7.55;;;;;;;14.09;100.00;101311.13;5016951;28;20100;-69
2021/09/01 02:22:54;;;;;;;13.90;7.22;;;;;;;14.07;100.00;101313.94;5016898;28;20046;-69
2021/09/01 02:25:26;;;;;;;15.73;6.78;;;;;;;14.03;100.00;101296.25;5015670;28;20038;-68
2021/09/01 02:27:55;;;;;;;16.67;7.13;;;;;;;14.11;100.00;101309.25;5015777;28;20057;-69
2021/09/01 02:30:22;;;;;;;20.15;8.20;;;;;;;14.06;100.00;101309.50;5016771;28;20050;-69
2021/09/01 02:32:49;;;;;;;16.45;7.65;;;;;;;14.05;100.00;101306.91;5016647;28;20054;-69
2021/09/01 02:35:17;;;;;;;16.42;7.53;;;;;;;14.03;100.00;101311.50;5018555;28;20483;-69
2021/09/01 02:37:44;;;;;;;13.00;6.97;;;;;;;14.07;100.00;101307.69;5018159;28;20431;-69
2021/09/01 02:40:11;;;;;;;20.65;7.93;;;;;;;14.05;100.00;101307.75;5021097;28;20045;-68
2021/09/01 02:42:38;;;;;;;16.77;8.00;;;;;;;14.03;100.00;101303.44;5020060;28;20049;-68
2021/09/01 02:45:05;;;;;;;24.02;7.72;;;;;;;14.06;100.00;101311.31;5016411;28;20048;-68
2021/09/01 02:47:32;;;;;;;16.92;7.63;;;;;;;14.04;100.00;101310.53;4999158;28;20153;-67
2021/09/01 02:49:58;;;;;;;16.33;6.97;;;;;;;13.99;100.00;101309.00;5016330;28;20427;-68
2021/09/01 02:52:25;;;;;;;13.77;7.18;;;;;;;14.03;100.00;101315.06;5016348;28;20156;-68
2021/09/01 02:54:52;;;;;;;18.02;6.90;;;;;;;14.11;100.00;101309.25;5015210;28;20038;-70
2021/09/01 02:57:19;;;;;;;18.08;6.85;;;;;;;14.06;100.00;101314.84;5016274;28;20745;-70
2021/09/01 02:59:45;;;;;;;17.35;7.43;;;;;;;14.01;100.00;101308.03;5016073;28;20042;-70
2021/09/01 03:02:12;;;;;;;17.77;7.05;;;;;;;14.06;100.00;101309.50;5016265;28;20053;-69
2021/09/01 03:04:39;;;;;;;14.63;7.18;;;;;;;14.05;100.00;101309.59;5015988;28;20446;-69
2021/09/01 03:07:06;;;;;;;17.23;7.47;;;;;;;14.06;100.00;101305.97;5016106;28;20053;-68
2021/09/01 03:09:32;;;;;;;12.95;6.28;;;;;;;14.03;100.00;101301.63;5014589;28;20049;-70
2021/09/01 03:11:59;;;;;;;17.50;7.40;;;;;;;14.04;100.00;101303.34;5015007;28;20061;-67
2021/09/01 03:14:26;;;;;;;17.90;7.63;;;;;;;14.07;100.00;101305.00;5031178;28;20442;-68
2021/09/01 03:16:55;;;;;;;16.67;7.05;;;;;;;14.06;100.00;101301.44;5015812;28;20054;-68
2021/09/01 03:19:22;;;;;;;10.93;6.88;;;;;;;14.07;100.00;101299.63;5016018;28;20053;-67
2021/09/01 03:21:49;;;;;;;14.13;6.70;;;;;;;14.07;100.00;101299.63;5015890;28;20049;-68
2021/09/01 03:24:16;;;;;;;20.80;7.03;;;;;;;13.88;100.00;101279.22;5015662;28;20068;-68
2021/09/01 03:26:43;;;;;;;16.27;7.03;;;;;;;14.02;100.00;101293.66;5015691;28;20054;-68
2021/09/01 03:29:10;;;;;;;11.88;6.38;;;;;;;14.04;100.00;101297.09;5014668;28;20057;-67
2021/09/01 03:31:37;;;;;;;15.80;6.20;;;;;;;13.95;100.00;101291.31;5015692;28;20053;-68
2021/09/01 03:34:04;;;;;;;15.10;6.30;;;;;;;14.01;100.00;101289.25;5014686;28;20037;-69
2021/09/01 03:36:30;;;;;;;17.95;6.93;;;;;;;13.98;100.00;101288.47;5015615;28;20046;-68
2021/09/01 03:38:57;;;;;;;17.75;6.35;;;;;;;14.01;100.00;101289.25;4998367;28;20104;-69
2021/09/01 03:41:24;;;;;;;21.33;7.20;;;;;;;13.97;100.00;101285.88;5014349;28;20119;-69
2021/09/01 03:43:51;;;;;;;15.32;7.03;;;;;;;14.03;100.00;101290.00;5014826;28;20390;-69
2021/09/01 03:46:18;;;;;;;19.67;6.85;;;;;;;14.01;100.00;101295.50;5015117;28;20420;-69
2021/09/01 03:48:44;;;;;;;12.07;5.47;;;;;;;14.04;100.00;101297.09;5047094;28;20108;-68
2021/09/01 03:51:11;;;;;;;14.05;6.75;;;;;;;14.01;100.00;101305.34;5015229;28;20078;-69
2021/09/01 03:53:38;;;;;;;16.88;6.57;;;;;;;14.03;100.00;101300.75;5015470;28;20077;-70
2021/09/01 03:56:05;;;;;;;16.35;6.40;;;;;;;14.01;100.00;101305.34;5014232;28;20053;-70
2021/09/01 03:58:31;;;;;;;15.20;6.45;;;;;;;14.02;100.00;101304.41;5015415;28;20041;-69
2021/09/01 04:00:58;;;;;;;15.98;6.80;;;;;;;14.02;100.00;101301.72;5015303;28;20050;-69
2021/09/01 04:03:25;;;;;;;16.77;6.43;;;;;;;14.04;99.97;101302.47;5015361;28;20124;-68
2021/09/01 04:05:52;;;;;;;21.83;7.00;;;;;;;14.02;100.00;101304.41;5015194;28;20069;-68
2021/09/01 04:08:19;;;;;;;17.40;6.38;;;;;;;13.98;99.98;101304.59;5015366;28;20045;-69
2021/09/01 04:10:45;;;;;;;15.48;6.22;;;;;;;14.01;99.60;101313.41;5014174;28;20136;-69
2021/09/01 04:13:12;;;;;;;11.82;6.00;;;;;;;14.01;97.88;101311.59;5015437;28;20065;-69
2021/09/01 04:15:39;;;;;;;16.30;5.38;;;;;;;13.97;97.87;101313.59;5015284;28;20046;-69
2021/09/01 04:18:06;;;;;;;13.20;5.18;;;;;;;13.94;98.48;101311.06;5014019;28;20145;-69
2021/09/01 04:20:33;;;;;;;9.93;4.57;;;;;;;13.99;98.27;101327.78;5015709;28;20061;-68
2021/09/01 04:22:59;;;;;;;13.02;5.45;;;;;;;13.96;97.41;101317.19;4998327;28;20038;-69
2021/09/01 04:25:26;;;;;;;13.27;4.95;;;;;;;14.02;96.82;101315.13;4998354;28;20042;-68
2021/09/01 04:27:54;;;;;;;15.40;5.10;;;;;;;13.94;97.24;101308.38;4998348;28;20057;-69
2021/09/01 04:30:20;;;;;;;12.02;4.78;;;;;;;13.97;97.98;101316.28;4999362;28;20105;-69
2021/09/01 04:32:47;;;;;;;13.55;5.22;;;;;;;13.97;99.76;101312.72;4999369;28;20403;-68
2021/09/01 04:35:14;;;;;;;14.60;5.13;;;;;;;13.97;98.18;101318.97;4998240;28;20042;-69
2021/09/01 04:37:40;;;;;;;15.23;5.00;;;;;;;13.97;98.52;101302.84;4998122;28;20046;-69
2021/09/01 04:40:08;;;;;;;12.60;4.57;;;;;;;13.94;98.12;101307.53;4999324;28;20050;-68
2021/09/01 04:42:34;;;;;;;12.55;4.60;;;;;;;13.95;98.44;101312.78;4999162;28;20108;-69
2021/09/01 04:45:02;;;;;;;12.63;4.60;;;;;;;13.98;97.93;101309.94;4999103;28;20096;-67
2021/09/01 04:47:29;;;;;;;14.95;4.80;;;;;;;13.98;98.88;101312.63;5003321;28;20415;-67
2021/09/01 04:49:56;;;;;;;12.80;4.47;;;;;;;13.98;99.11;101309.06;5018654;28;20104;-68
2021/09/01 04:52:23;;;;;;;11.15;4.32;;;;;;;13.96;99.13;101308.31;5018495;28;20046;-67
2021/09/01 04:54:50;;;;;;;14.65;4.30;;;;;;;13.95;98.96;101310.09;5033901;28;20046;-68
2021/09/01 04:57:16;;;;;;;15.70;4.53;;;;;;;13.94;98.05;101313.75;5018447;28;20045;-67
2021/09/01 04:59:43;;;;;;;14.27;4.95;;;;;;;13.95;98.88;101320.84;5018190;28;20054;-68
2021/09/01 05:02:10;;;;;;;13.07;5.35;;;;;;;13.94;100.00;101312.91;5015254;28;20046;-68
2021/09/01 05:04:37;;;;;;;14.98;4.80;;;;;;;13.92;98.32;101323.72;5018287;28;20104;-68
2021/09/01 05:07:04;;;;;;;18.23;6.03;;;;;;;13.94;98.93;101320.97;5018349;28;20104;-68
2021/09/01 05:09:31;;;;;;;10.73;4.43;;;;;;;13.88;99.64;101314.09;5023051;28;20045;-68
2021/09/01 05:11:57;;;;;;;16.50;5.50;;;;;;;13.94;100.00;101323.63;5018244;28;20038;-68
2021/09/01 05:14:24;;;;;;;13.85;5.00;;;;;;;13.87;99.78;101314.19;5018061;28;20100;-69
2021/09/01 05:16:51;;;;;;;11.70;4.68;;;;;;;13.91;99.43;101324.69;5016259;28;20490;-69
2021/09/01 05:19:18;;;;;;;17.38;5.25;;;;;;;13.90;99.29;101322.91;5032840;28;20046;-68
2021/09/01 05:21:52;;;;;;;17.90;5.10;;;;;;;13.96;99.31;101330.63;5049247;28;20050;-68
2021/09/01 05:24:29;;;;;;;13.30;4.65;;;;;;;13.98;99.01;101328.75;5016899;28;20053;-69
2021/09/01 05:27:06;;;;;;;10.48;4.68;;;;;;;13.99;99.63;101332.28;5017961;28;20112;-69
2021/09/01 05:29:36;;;;;;;8.48;4.18;;;;;;;14.01;99.82;101330.38;5049746;28;20053;-69
2021/09/01 05:32:04;;;;;;;14.18;5.75;;;;;;;13.98;99.78;101333.22;5032841;28;20148;-69
2021/09/01 05:34:31;;;;;;;12.75;4.75;;;;;;;13.99;99.23;101333.16;5000602;28;20538;-68
2021/09/01 05:36:58;;;;;;;14.50;4.25;;;;;;;13.95;99.75;101320.84;5017872;28;20050;-69
2021/09/01 05:39:26;;;;;;;15.05;5.03;;;;;;;13.94;98.99;101323.63;5049326;28;20050;-67
2021/09/01 05:41:54;;;;;;;18.38;5.05;;;;;;;13.97;99.66;101327.00;5017691;28;20053;-68
2021/09/01 05:44:21;;;;;;;10.77;4.70;;;;;;;14.04;99.73;101335.56;5016106;28;20092;-68
2021/09/01 05:46:49;;;;;;;9.40;4.95;;;;;;;13.96;100.00;101332.47;5015999;28;20042;-68
2021/09/01 05:49:16;;;;;;;14.40;5.65;;;;;;;13.97;99.93;101343.13;5016417;28;20100;-69
2021/09/01 05:51:43;;;;;;;15.95;5.75;;;;;;;14.01;99.87;101340.25;5027074;28;20053;-73
2021/09/01 05:54:10;;;;;;;14.48;5.95;;;;;;;14.03;99.30;101341.91;5018464;28;20042;-70
2021/09/01 05:56:39;;;;;;;13.13;5.28;;;;;;;14.09;99.06;101337.97;5004185;28;20305;-68
2021/09/01 05:59:11;;;;;;;21.08;6.55;;;;;;;14.10;99.05;101334.34;4997241;28;20043;-67
2021/09/01 06:01:41;;;;;;;16.70;6.20;;;;;;;14.08;100.00;101336.25;4995808;28;20046;-71
2021/09/01 06:04:09;;;;;;;;;;;;;;;14.10;99.59;101335.22;5015066;28;20070;-71
2021/09/01 06:06:41;;;;;;;15.70;7.32;;;;;;;14.10;100.00;101334.34;5016878;28;19921;-73
2021/09/01 06:09:08;;;;;;;14.93;6.25;;;;;;;14.11;100.00;101339.63;5015614;28;20042;-73
2021/09/01 06:11:36;;;;;;;17.08;6.57;;;;;;;14.10;99.38;101340.59;5015562;28;20351;-72
2021/09/01 06:14:03;;;;;;;18.60;5.40;;;;;;;14.15;100.00;101347.53;5016556;28;20100;-72
2021/09/01 06:16:30;;;;;;;23.95;6.38;;;;;;;14.18;100.00;101344.66;5012899;28;20034;-73
2021/09/01 06:18:57;;;;;;;15.60;6.15;;;;;;;14.15;99.91;101340.31;5012502;28;20354;-74
2021/09/01 06:21:24;;;;;;;16.17;6.63;;;;;;;14.14;98.21;101341.28;5016344;28;20050;-78
2021/09/01 06:23:51;;;;;;;15.40;6.22;;;;;;;14.15;99.69;101334.94;5013199;28;20081;-73
2021/09/01 06:26:18;;;;;;;20.50;6.97;;;;;;;14.14;100.00;101341.28;5016476;28;20421;-74
2021/09/01 06:28:44;;;;;;;16.98;5.80;;;;;;;14.18;100.00;101339.28;5020300;28;20105;-72
2021/09/01 06:31:11;;;;;;;13.70;6.03;;;;;;;14.16;99.82;101344.72;5005993;28;20129;-71
2021/09/01 06:33:38;;;;;;;16.02;6.65;;;;;;;14.13;99.84;101334.19;4996074;28;20050;-69
2021/09/01 06:36:05;;;;;;;18.30;7.47;;;;;;;14.13;100.00;101342.25;5006117;28;20045;-74
2021/09/01 06:38:33;;;;;;;16.83;6.70;;;;;;;14.12;99.54;101343.19;5008424;28;20045;-71
2021/09/01 06:40:59;;;;;;;20.70;6.97;;;;;;;14.17;99.37;101341.09;5015944;28;20049;-73
2021/09/01 06:43:26;;;;;;;19.95;7.00;;;;;;;14.24;100.00;101347.00;5013573;28;20545;-73
2021/09/01 06:45:53;;;;;;;18.85;6.88;;;;;;;14.21;100.00;101341.78;5017887;28;20423;-71
2021/09/01 06:48:21;;;;;;;21.60;7.57;;;;;;;14.20;100.00;101351.66;5014495;28;20423;-71
2021/09/01 06:50:48;;;;;;;20.20;7.30;;;;;;;14.19;99.53;101347.25;5015547;28;20101;-72
2021/09/01 06:53:14;;;;;;;17.45;7.53;;;;;;;14.18;100.00;101353.59;5029999;28;20046;-70
2021/09/01 06:55:41;;;;;;;20.25;7.97;;;;;;;14.18;100.00;101350.91;5016895;28;20038;-70
2021/09/01 06:58:16;;;;;;;19.77;7.82;;;;;;;14.11;100.00;101344.16;5012775;28;20042;-70
2021/09/01 07:00:43;;;;;;;19.70;8.07;;;;;;;14.04;100.00;101356.16;5015478;28;20107;-72
2021/09/01 07:03:10;;;;;;;21.63;7.93;;;;;;;14.01;100.00;101350.97;5007915;28;20500;-74
2021/09/01 07:05:37;;;;;;;22.52;9.48;;;;;;;13.97;100.00;101351.16;5015121;28;20129;-72
2021/09/01 07:08:12;;;;;;;21.80;8.20;;;;;;;14.01;100.00;101367.97;5015600;28;20061;-74
2021/09/01 07:10:39;;;;;;;26.63;8.23;;;;;;;14.10;100.00;101366.56;5014425;28;20050;-74
2021/09/01 07:13:07;;;;;;;21.92;7.20;;;;;;;14.08;100.00;101371.16;5007731;28;20435;-73
2021/09/01 07:15:33;;;;;;;26.92;7.90;;;;;;;13.95;100.00;101369.16;5015308;28;20428;-75
2021/09/01 07:18:00;;;;;;;18.70;7.15;;;;;;;13.94;100.00;101375.47;5013253;28;20054;-72
2021/09/01 07:20:27;;;;;;;19.67;7.85;;;;;;;13.82;100.00;101352.00;5017682;28;20388;-72
2021/09/01 07:22:54;;;;;;;16.92;7.60;;;;;;;13.99;100.00;101375.22;5038873;28;20053;-68
2021/09/01 07:25:22;;;;;;;23.65;7.72;;;;;;;13.93;100.00;101365.69;5013489;28;21748;-69
2021/09/01 07:27:49;;;;;;;24.80;7.63;;;;;;;14.06;100.00;101378.44;5013113;28;20403;-69
2021/09/01 07:30:15;;;;;;;26.88;8.07;;;;;;;13.91;100.00;101350.63;5019594;28;20068;-75
2021/09/01 07:32:42;;;;;;;25.42;8.18;;;;;;;14.13;100.00;101377.13;5037593;28;20354;-74
2021/09/01 07:35:10;;;;;;;18.10;7.43;;;;;;;14.19;100.00;101376.78;5014348;28;20061;-74
2021/09/01 07:37:51;;;;;;;18.23;7.30;;;;;;;14.21;100.00;101385.63;5015281;28;20124;-68
2021/09/01 07:40:19;;;;;;;;;;;;;;;14.26;100.00;101380.84;5015654;28;20077;-75
2021/09/01 07:42:46;;;;;;;21.15;7.20;;;;;;;14.29;100.00;101379.81;5006576;28;19921;-71
2021/09/01 07:45:15;;;;;;;19.60;7.38;;;;;;;14.37;100.00;101387.41;5014774;28;20497;-71
2021/09/01 07:47:50;;;;;;;21.77;7.22;;;;;;;14.38;100.00;101378.41;5014989;28;20037;-73
2021/09/01 07:50:26;;;;;;;22.52;7.75;;;;;;;14.48;99.99;101387.66;5014688;28;20050;-74
2021/09/01 07:52:53;;;;;;;22.73;7.72;;;;;;;14.46;100.00;101372.59;5005549;28;20095;-74
2021/09/01 07:55:20;;;;;;;20.83;7.70;;;;;;;14.57;100.00;101388.09;5014876;28;20428;-69
2021/09/01 07:57:47;;;;;;;21.50;8.40;;;;;;;14.56;100.00;101389.03;5014303;28;20041;-72
2021/09/01 08:00:14;;;;;;;26.60;7.72;;;;;;;14.63;100.00;101383.22;5014229;28;20327;-73
2021/09/01 08:02:42;;;;;;;25.80;7.88;;;;;;;14.72;100.00;101394.38;5016056;28;20079;-75
2021/09/01 08:05:09;;;;;;;15.35;7.30;;;;;;;14.78;100.00;101394.06;5019057;28;20402;-73
2021/09/01 08:07:36;;;;;;;25.25;8.38;;;;;;;14.80;100.00;101401.09;5014925;28;20049;-71
2021/09/01 08:10:04;;;;;;;20.27;8.70;;;;;;;14.87;100.00;101404.25;5013132;28;20042;-72
2021/09/01 08:12:31;;;;;;;16.70;8.20;;;;;;;14.89;99.07;101414.94;5029884;28;20046;-73
2021/09/01 08:14:58;;;;;;;21.33;7.75;;;;;;;14.87;98.30;101403.41;5014718;28;20042;-72
2021/09/01 08:17:25;;;;;;;19.30;8.73;;;;;;;14.79;98.94;101396.66;5011237;28;20473;-76
2021/09/01 08:19:52;;;;;;;16.17;7.70;;;;;;;14.88;99.05;101421.25;5014821;28;20096;-77
2021/09/01 08:22:19;;;;;;;17.60;7.97;;;;;;;14.85;97.72;101427.69;5014325;28;20049;-79
2021/09/01 08:24:46;;;;;;;17.23;7.32;;;;;;;14.88;98.07;101434.69;5013548;28;20781;-70
2021/09/01 08:27:13;;;;;;;24.67;7.90;;;;;;;14.87;99.29;101424.91;5014692;28;20049;-72
2021/09/01 08:29:41;;;;;;;19.27;6.22;;;;;;;15.01;95.48;101435.72;5013762;28;20489;-70
2021/09/01 08:32:09;;;;;;;16.58;7.50;;;;;;;14.94;96.31;101437.03;5014748;28;20663;-70
2021/09/01 08:34:36;;;;;;;18.13;6.28;;;;;;;14.87;96.49;101441.03;5004005;28;20038;-69
2021/09/01 08:37:04;;;;;;;16.42;6.55;;;;;;;14.90;95.77;101440.84;5013647;28;20065;-69
2021/09/01 08:39:32;;;;;;;20.42;6.25;;;;;;;14.95;97.38;101438.75;4994188;28;20053;-72
2021/09/01 08:42:00;;;;;;;22.40;6.78;;;;;;;14.88;97.16;101424.78;5010769;28;20068;-73
2021/09/01 08:44:27;;;;;;;20.85;6.15;;;;;;;14.90;96.01;101425.59;5013084;28;20395;-79
2021/09/01 08:46:57;;;;;;;20.40;5.80;;;;;;;14.99;95.66;101434.06;5014248;28;20678;-72
2021/09/01 08:49:26;;;;;;;16.77;6.30;;;;;;;14.95;95.49;101422.63;5013952;28;20379;-69
2021/09/01 08:51:53;;;;;;;20.58;6.45;;;;;;;15.09;91.26;101440.59;4997923;28;20405;-69
2021/09/01 08:54:21;;;;;;;16.00;5.03;;;;;;;15.00;91.88;101435.78;5017881;28;20068;-72
2021/09/01 08:56:49;;;;;;;14.32;4.50;;;;;;;15.06;90.80;101438.13;4998134;28;20046;-68
2021/09/01 08:59:16;;;;;;;16.05;4.60;;;;;;;15.04;91.63;101440.88;5012978;28;20046;-73
2021/09/01 09:01:55;;;;;;;14.63;4.63;;;;;;;15.13;90.49;101442.16;5011825;28;20046;-72
2021/09/01 09:04:27;;;;;;;12.35;4.88;;;;;;;15.17;90.01;101437.47;5014299;28;20065;-69
2021/09/01 09:06:56;;;;;;;16.17;4.40;;;;;;;15.11;90.46;101440.53;5014607;28;20038;-69
2021/09/01 09:09:28;;;;;;;17.92;5.22;;;;;;;15.10;91.03;101446.88;5018187;28;20046;-72
2021/09/01 09:11:56;;;;;;;10.65;3.95;;;;;;;15.11;89.63;101449.47;5014233;28;20050;-69
2021/09/01 09:14:35;;;;;;;17.23;4.18;;;;;;;15.09;88.65;101450.53;5010031;28;20046;-68
2021/09/01 09:17:08;;;;;;;7.47;3.70;;;;;;;14.94;88.82;101435.19;5010521;28;20042;-70
2021/09/01 09:19:55;;;;;;;8.25;3.33;;;;;;;15.05;88.04;101450.69;5013546;28;20073;-72
2021/09/01 09:22:28;;;;;;;14.20;4.40;;;;;;;15.07;86.28;101446.09;5016480;28;20057;-74
2021/09/01 09:25:12;;;;;;;10.48;3.40;;;;;;;15.09;87.61;101456.75;5016979;28;20085;-74
2021/09/01 09:27:41;;;;;;;17.83;4.35;;;;;;;15.10;88.38;101449.56;5017406;28;20049;-74
2021/09/01 09:30:23;;;;;;;17.43;5.43;;;;;;;15.01;89.83;101445.59;5016401;28;20374;-74
2021/09/01 09:33:00;;;;;;;15.80;5.05;;;;;;;15.11;88.99;101448.59;5017303;28;20061;-76
2021/09/01 09:35:50;;;;;;;15.98;4.70;;;;;;;14.91;91.26;101421.06;5008307;28;20042;-73
2021/09/01 09:38:38;;;;;;;14.20;4.90;;;;;;;15.13;89.23;101441.28;5016621;28;20050;-69
2021/09/01 09:41:30;;;;;;;13.63;4.22;;;;;;;15.11;88.95;101437.84;5015538;28;20122;-75
2021/09/01 09:44:03;;;;;;;14.65;4.38;;;;;;;15.06;90.54;101432.75;5015709;28;20042;-75
2021/09/01 09:46:44;;;;;;;14.13;4.47;;;;;;;15.07;92.18;101440.72;5016333;28;20048;-69
2021/09/01 09:49:11;;;;;;;14.63;4.47;;;;;;;15.13;90.80;101446.66;5016484;28;20042;-69
2021/09/01 09:51:43;;;;;;;13.30;4.95;;;;;;;15.10;91.27;101433.41;5016613;28;20157;-74
2021/09/01 09:54:15;;;;;;;13.88;4.60;;;;;;;15.23;90.71;101445.19;5016506;28;20715;-75
2021/09/01 09:56:42;;;;;;;8.68;4.43;;;;;;;15.19;89.36;101424.78;5009686;28;20042;-68
2021/09/01 09:59:22;;;;;;;16.02;5.47;;;;;;;15.21;86.91;101429.13;5013535;28;20052;-74
2021/09/01 10:01:49;;;;;;;16.75;4.07;;;;;;;15.14;89.01;101437.66;5036243;28;20095;-75
2021/09/01 10:04:17;;;;;;;13.80;4.30;;;;;;;15.15;87.28;101439.41;5016280;28;20045;-76
2021/09/01 10:06:44;;;;;;;13.10;4.53;;;;;;;15.11;87.65;101441.41;5014927;28;20045;-75
2021/09/01 10:09:10;;;;;;;15.75;4.93;;;;;;;15.12;87.78;101447.63;5016479;28;20052;-69
2021/09/01 10:11:45;;;;;;;14.00;4.28;;;;;;;15.16;86.64;101449.19;5015999;28;20050;-69
2021/09/01 10:14:17;;;;;;;9.55;3.60;;;;;;;14.93;88.00;101419.19;5015423;28;20052;-70
2021/09/01 10:16:50;;;;;;;11.30;4.35;;;;;;;15.22;87.82;101443.44;5009603;28;20378;-70
2021/09/01 10:19:20;;;;;;;11.80;4.45;;;;;;;15.26;86.64;101441.44;5018662;28;20050;-70
2021/09/01 10:22:00;;;;;;;10.95;4.55;;;;;;;15.24;85.17;101433.44;5016788;28;20047;-70
2021/09/01 10:24:31;;;;;;;12.73;3.88;;;;;;;15.22;87.06;101427.31;5000320;28;20041;-70
2021/09/01 10:27:21;;;;;;;10.75;3.83;;;;;;;15.22;86.74;101413.88;5015022;28;20042;-71
2021/09/01 10:30:04;;;;;;;11.23;4.25;;;;;;;15.37;86.31;101422.84;5016631;28;20049;-71
2021/09/01 10:32:44;;;;;;;17.02;4.90;;;;;;;15.43;84.64;101419.72;5016401;28;20088;-69
2021/09/01 10:35:15;;;;;;;12.10;4.40;;;;;;;15.50;85.79;101422.94;5011362;28;20042;-74
2021/09/01 10:37:51;;;;;;;10.93;4.18;;;;;;;15.55;85.59;101414.56;5014562;28;20053;-70
2021/09/01 10:40:20;;;;;;;11.00;4.20;;;;;;;15.61;85.08;101419.56;5015936;28;20034;-71
2021/09/01 10:42:51;;;;;;;11.55;4.22;;;;;;;15.69;85.12;101422.63;5016115;28;20406;-73
2021/09/01 10:45:22;;;;;;;11.98;4.22;;;;;;;15.76;83.31;101428.53;5004385;28;20797;-75
2021/09/01 10:47:49;;;;;;;8.02;3.70;;;;;;;15.78;82.56;101426.59;5016788;28;20069;-78
2021/09/01 10:50:17;;;;;;;10.50;3.80;;;;;;;15.75;82.80;101406.09;5021091;28;20427;-74
2021/09/01 10:53:20;;;;;;;15.15;4.20;;;;;;;15.95;81.84;101413.94;5015420;28;20041;-72
2021/09/01 10:56:13;;;;;;;14.13;4.07;;;;;;;15.96;81.99;101415.66;5008866;28;20058;-72
2021/09/01 10:58:45;;;;;;;13.80;4.15;;;;;;;15.98;82.03;101417.28;5014796;28;20054;-70
2021/09/01 11:01:16;;;;;;;13.63;4.32;;;;;;;15.94;83.08;101404.97;5014989;28;20046;-71
2021/09/01 11:04:02;;;;;;;10.63;4.10;;;;;;;16.04;82.08;101415.16;5014883;28;20049;-71
2021/09/01 11:06:33;;;;;;;9.63;4.03;;;;;;;16.07;82.59;101415.81;5011983;28;20041;-71
2021/09/01 11:09:13;;;;;;;10.73;4.20;;;;;;;16.08;80.46;101398.69;5011649;28;20478;-71
2021/09/01 11:11:57;;;;;;;10.82;3.92;;;;;;;16.13;79.82;101411.88;5001144;28;21268;-69
2021/09/01 11:14:36;;;;;;;12.30;4.25;;;;;;;16.06;78.12;101408.69;5015384;28;20077;-72
2021/09/01 11:17:15;;;;;;;14.10;4.20;;;;;;;16.06;79.02;101408.69;5014291;28;20045;-71
2021/09/01 11:19:44;;;;;;;14.50;4.63;;;;;;;16.17;79.70;101415.25;5013843;28;20121;-71
2021/09/01 11:22:15;;;;;;;10.88;3.97;;;;;;;16.20;81.58;101413.22;5013820;28;20359;-71
2021/09/01 11:24:43;;;;;;;11.63;4.10;;;;;;;16.26;81.84;101404.72;5015248;28;20042;-70